sensor_id;sensor_type;location;lat;lon;timestamp;temperature;humidity
68378;DHT22;55322;48.146;11.516;2022-10-26T00:01:08;10.52;93.76
68378;DHT22;55322;48.146;11.516;2022-10-26T00:03:35;10.55;92.93
68378;DHT22;55322;48.146;11.516;2022-10-26T00:06:06;10.77;91.31
68378;DHT22;55322;48.146;11.516;2022-10-26T00:08:32;10.95;90.63
68378;DHT22;55322;48.146;11.516;2022-10-26T00:10:57;11.10;89.10
68378;DHT22;55322;48.146;11.516;2022-10-26T00:13:22;11.07;88.80
68378;DHT22;55322;48.146;11.516;2022-10-26T00:15:48;11.09;89.40
68378;DHT22;55322;48.146;11.516;2022-10-26T00:18:13;11.00;89.62
68378;DHT22;55322;48.146;11.516;2022-10-26T00:20:38;10.97;89.90
68378;DHT22;55322;48.146;11.516;2022-10-26T00:23:04;10.97;89.82
68378;DHT22;55322;48.146;11.516;2022-10-26T00:25:29;10.99;89.70
68378;DHT22;55322;48.146;11.516;2022-10-26T00:27:54;11.02;89.23
68378;DHT22;55322;48.146;11.516;2022-10-26T00:30:20;11.03;89.33
68378;DHT22;55322;48.146;11.516;2022-10-26T00:32:45;11.09;88.75
68378;DHT22;55322;48.146;11.516;2022-10-26T00:35:10;11.20;88.35
68378;DHT22;55322;48.146;11.516;2022-10-26T00:37:35;11.13;88.36
68378;DHT22;55322;48.146;11.516;2022-10-26T00:40:01;11.10;88.79
68378;DHT22;55322;48.146;11.516;2022-10-26T00:42:26;11.07;90.56
68378;DHT22;55322;48.146;11.516;2022-10-26T00:44:56;10.97;91.66
68378;DHT22;55322;48.146;11.516;2022-10-26T00:47:32;10.93;92.21
68378;DHT22;55322;48.146;11.516;2022-10-26T00:50:02;10.95;92.17
68378;DHT22;55322;48.146;11.516;2022-10-26T00:52:28;10.97;91.95
68378;DHT22;55322;48.146;11.516;2022-10-26T00:54:54;10.97;90.75
68378;DHT22;55322;48.146;11.516;2022-10-26T00:57:19;11.03;90.20
68378;DHT22;55322;48.146;11.516;2022-10-26T00:59:45;11.06;90.48
68378;DHT22;55322;48.146;11.516;2022-10-26T01:02:11;11.09;90.95
68378;DHT22;55322;48.146;11.516;2022-10-26T01:04:37;11.09;90.74
68378;DHT22;55322;48.146;11.516;2022-10-26T01:07:04;11.14;90.46
68378;DHT22;55322;48.146;11.516;2022-10-26T01:09:31;11.14;89.83
68378;DHT22;55322;48.146;11.516;2022-10-26T01:11:57;11.14;89.81
68378;DHT22;55322;48.146;11.516;2022-10-26T01:14:24;11.17;90.56
68378;DHT22;55322;48.146;11.516;2022-10-26T01:22:50;10.92;92.34
68378;DHT22;55322;48.146;11.516;2022-10-26T01:27:49;10.88;93.33
68378;DHT22;55322;48.146;11.516;2022-10-26T01:39:24;10.90;92.69
68378;DHT22;55322;48.146;11.516;2022-10-26T01:41:56;10.92;91.89
68378;DHT22;55322;48.146;11.516;2022-10-26T01:44:27;10.82;93.59
68378;DHT22;55322;48.146;11.516;2022-10-26T01:46:54;10.76;93.87
68378;DHT22;55322;48.146;11.516;2022-10-26T01:49:25;10.75;94.31
68378;DHT22;55322;48.146;11.516;2022-10-26T01:51:51;10.80;93.80
68378;DHT22;55322;48.146;11.516;2022-10-26T01:54:17;10.86;92.18
68378;DHT22;55322;48.146;11.516;2022-10-26T01:56:46;10.96;90.50
68378;DHT22;55322;48.146;11.516;2022-10-26T02:02:29;11.13;90.19
68378;DHT22;55322;48.146;11.516;2022-10-26T02:07:59;11.10;92.72
68378;DHT22;55322;48.146;11.516;2022-10-26T02:15:40;11.12;92.48
68378;DHT22;55322;48.146;11.516;2022-10-26T02:20:50;11.00;93.48
68378;DHT22;55322;48.146;11.516;2022-10-26T02:23:18;10.92;93.15
68378;DHT22;55322;48.146;11.516;2022-10-26T02:25:49;10.82;93.72
68378;DHT22;55322;48.146;11.516;2022-10-26T02:28:22;10.83;94.12
68378;DHT22;55322;48.146;11.516;2022-10-26T02:30:51;10.89;94.16
68378;DHT22;55322;48.146;11.516;2022-10-26T02:33:19;10.90;93.80
68378;DHT22;55322;48.146;11.516;2022-10-26T02:35:49;10.95;92.07
68378;DHT22;55322;48.146;11.516;2022-10-26T02:38:17;11.03;91.46
68378;DHT22;55322;48.146;11.516;2022-10-26T02:40:44;11.06;91.74
68378;DHT22;55322;48.146;11.516;2022-10-26T02:43:12;11.12;90.64
68378;DHT22;55322;48.146;11.516;2022-10-26T02:45:48;11.17;91.47
68378;DHT22;55322;48.146;11.516;2022-10-26T02:48:14;11.17;91.59
68378;DHT22;55322;48.146;11.516;2022-10-26T02:50:59;11.17;91.98
68378;DHT22;55322;48.146;11.516;2022-10-26T02:53:31;11.30;89.93
68378;DHT22;55322;48.146;11.516;2022-10-26T02:56:03;11.22;91.92
68378;DHT22;55322;48.146;11.516;2022-10-26T02:58:36;11.16;91.65
68378;DHT22;55322;48.146;11.516;2022-10-26T03:01:02;11.17;90.64
68378;DHT22;55322;48.146;11.516;2022-10-26T03:03:28;11.16;92.54
68378;DHT22;55322;48.146;11.516;2022-10-26T03:05:53;11.10;92.76
68378;DHT22;55322;48.146;11.516;2022-10-26T03:08:18;11.00;93.67
68378;DHT22;55322;48.146;11.516;2022-10-26T03:10:44;10.95;93.15
68378;DHT22;55322;48.146;11.516;2022-10-26T03:13:11;11.02;92.34
68378;DHT22;55322;48.146;11.516;2022-10-26T03:15:37;11.33;89.75
68378;DHT22;55322;48.146;11.516;2022-10-26T03:18:03;11.35;89.84
68378;DHT22;55322;48.146;11.516;2022-10-26T03:20:29;11.30;90.91
68378;DHT22;55322;48.146;11.516;2022-10-26T03:22:54;11.26;91.61
68378;DHT22;55322;48.146;11.516;2022-10-26T03:25:21;11.20;93.07
68378;DHT22;55322;48.146;11.516;2022-10-26T03:27:55;11.12;94.16
68378;DHT22;55322;48.146;11.516;2022-10-26T03:30:20;11.03;94.18
68378;DHT22;55322;48.146;11.516;2022-10-26T03:32:45;11.03;94.23
68378;DHT22;55322;48.146;11.516;2022-10-26T03:35:11;11.03;94.45
68378;DHT22;55322;48.146;11.516;2022-10-26T03:37:36;10.97;95.37
68378;DHT22;55322;48.146;11.516;2022-10-26T03:40:01;11.00;93.04
68378;DHT22;55322;48.146;11.516;2022-10-26T03:42:26;11.14;92.18
68378;DHT22;55322;48.146;11.516;2022-10-26T03:44:52;11.14;94.19
68378;DHT22;55322;48.146;11.516;2022-10-26T03:47:17;11.17;94.36
68378;DHT22;55322;48.146;11.516;2022-10-26T03:49:42;11.06;94.59
68378;DHT22;55322;48.146;11.516;2022-10-26T03:52:08;11.03;94.89
68378;DHT22;55322;48.146;11.516;2022-10-26T03:54:33;10.96;95.38
68378;DHT22;55322;48.146;11.516;2022-10-26T03:56:58;10.97;95.35
68378;DHT22;55322;48.146;11.516;2022-10-26T03:59:24;10.97;95.12
68378;DHT22;55322;48.146;11.516;2022-10-26T04:01:49;11.03;95.18
68378;DHT22;55322;48.146;11.516;2022-10-26T04:04:14;11.06;95.69
68378;DHT22;55322;48.146;11.516;2022-10-26T04:06:40;11.03;95.62
68378;DHT22;55322;48.146;11.516;2022-10-26T04:09:05;11.03;95.53
68378;DHT22;55322;48.146;11.516;2022-10-26T04:11:32;11.13;95.44
68378;DHT22;55322;48.146;11.516;2022-10-26T04:13:57;11.17;94.69
68378;DHT22;55322;48.146;11.516;2022-10-26T04:16:25;11.22;94.17
68378;DHT22;55322;48.146;11.516;2022-10-26T04:18:50;11.30;92.56
68378;DHT22;55322;48.146;11.516;2022-10-26T04:21:15;11.35;91.63
68378;DHT22;55322;48.146;11.516;2022-10-26T04:23:40;11.43;90.97
68378;DHT22;55322;48.146;11.516;2022-10-26T04:26:06;11.45;90.71
68378;DHT22;55322;48.146;11.516;2022-10-26T04:28:31;11.48;91.97
68378;DHT22;55322;48.146;11.516;2022-10-26T04:30:57;11.48;90.98
68378;DHT22;55322;48.146;11.516;2022-10-26T04:33:22;11.45;92.71
68378;DHT22;55322;48.146;11.516;2022-10-26T04:35:47;11.34;93.69
68378;DHT22;55322;48.146;11.516;2022-10-26T04:38:13;11.31;94.16
68378;DHT22;55322;48.146;11.516;2022-10-26T04:40:38;11.28;94.31
68378;DHT22;55322;48.146;11.516;2022-10-26T04:43:03;11.24;95.01
68378;DHT22;55322;48.146;11.516;2022-10-26T04:45:29;11.20;95.75
68378;DHT22;55322;48.146;11.516;2022-10-26T04:48:11;11.13;95.86
68378;DHT22;55322;48.146;11.516;2022-10-26T04:50:38;11.16;95.74
68378;DHT22;55322;48.146;11.516;2022-10-26T04:53:07;11.19;95.97
68378;DHT22;55322;48.146;11.516;2022-10-26T04:55:33;11.22;95.90
68378;DHT22;55322;48.146;11.516;2022-10-26T04:57:59;11.23;95.69
68378;DHT22;55322;48.146;11.516;2022-10-26T05:00:24;11.27;95.32
68378;DHT22;55322;48.146;11.516;2022-10-26T05:02:50;11.27;95.31
68378;DHT22;55322;48.146;11.516;2022-10-26T05:05:16;11.26;95.15
68378;DHT22;55322;48.146;11.516;2022-10-26T05:07:41;11.28;95.55
68378;DHT22;55322;48.146;11.516;2022-10-26T05:10:07;11.23;95.30
68378;DHT22;55322;48.146;11.516;2022-10-26T05:12:32;11.22;95.62
68378;DHT22;55322;48.146;11.516;2022-10-26T05:14:57;11.24;96.14
68378;DHT22;55322;48.146;11.516;2022-10-26T05:17:24;11.19;96.30
68378;DHT22;55322;48.146;11.516;2022-10-26T05:19:49;11.17;96.47
68378;DHT22;55322;48.146;11.516;2022-10-26T05:22:23;11.14;96.76
68378;DHT22;55322;48.146;11.516;2022-10-26T05:24:48;11.07;96.72
68378;DHT22;55322;48.146;11.516;2022-10-26T05:27:14;11.09;97.01
68378;DHT22;55322;48.146;11.516;2022-10-26T05:29:39;11.10;97.10
68378;DHT22;55322;48.146;11.516;2022-10-26T05:32:04;11.03;97.09
68378;DHT22;55322;48.146;11.516;2022-10-26T05:34:30;11.06;97.27
68378;DHT22;55322;48.146;11.516;2022-10-26T05:36:55;11.03;97.53
68378;DHT22;55322;48.146;11.516;2022-10-26T05:39:21;11.00;97.73
68378;DHT22;55322;48.146;11.516;2022-10-26T05:41:46;11.00;97.98
68378;DHT22;55322;48.146;11.516;2022-10-26T05:44:11;11.04;97.91
68378;DHT22;55322;48.146;11.516;2022-10-26T05:46:36;11.07;97.74
68378;DHT22;55322;48.146;11.516;2022-10-26T05:49:02;10.97;98.08
68378;DHT22;55322;48.146;11.516;2022-10-26T05:51:27;11.04;98.14
68378;DHT22;55322;48.146;11.516;2022-10-26T05:53:52;11.06;98.13
68378;DHT22;55322;48.146;11.516;2022-10-26T05:56:20;11.03;98.25
68378;DHT22;55322;48.146;11.516;2022-10-26T05:58:56;10.96;98.44
68378;DHT22;55322;48.146;11.516;2022-10-26T06:04:20;10.97;98.68
68378;DHT22;55322;48.146;11.516;2022-10-26T06:06:53;11.02;98.72
68378;DHT22;55322;48.146;11.516;2022-10-26T06:09:19;11.02;98.50
68378;DHT22;55322;48.146;11.516;2022-10-26T06:11:45;10.97;98.56
68378;DHT22;55322;48.146;11.516;2022-10-26T06:14:10;10.96;98.61
68378;DHT22;55322;48.146;11.516;2022-10-26T06:19:36;11.02;97.28
68378;DHT22;55322;48.146;11.516;2022-10-26T06:27:18;11.12;97.83
68378;DHT22;55322;48.146;11.516;2022-10-26T06:29:54;11.06;98.07
68378;DHT22;55322;48.146;11.516;2022-10-26T06:32:22;11.12;98.05
68378;DHT22;55322;48.146;11.516;2022-10-26T06:34:51;11.12;98.39
68378;DHT22;55322;48.146;11.516;2022-10-26T06:37:19;11.10;98.72
68378;DHT22;55322;48.146;11.516;2022-10-26T06:39:46;11.30;97.37
68378;DHT22;55322;48.146;11.516;2022-10-26T06:42:13;11.45;95.66
68378;DHT22;55322;48.146;11.516;2022-10-26T06:44:39;11.50;95.76
68378;DHT22;55322;48.146;11.516;2022-10-26T06:49:40;11.63;96.49
68378;DHT22;55322;48.146;11.516;2022-10-26T06:55:03;11.75;97.23
68378;DHT22;55322;48.146;11.516;2022-10-26T06:57:34;11.81;96.91
68378;DHT22;55322;48.146;11.516;2022-10-26T07:00:15;11.94;95.16
68378;DHT22;55322;48.146;11.516;2022-10-26T07:02:42;12.04;95.12
68378;DHT22;55322;48.146;11.516;2022-10-26T07:05:08;12.11;94.71
68378;DHT22;55322;48.146;11.516;2022-10-26T07:07:40;12.21;93.96
68378;DHT22;55322;48.146;11.516;2022-10-26T07:10:06;12.35;93.67
68378;DHT22;55322;48.146;11.516;2022-10-26T07:12:31;12.42;93.63
68378;DHT22;55322;48.146;11.516;2022-10-26T07:14:57;12.49;93.56
68378;DHT22;55322;48.146;11.516;2022-10-26T07:17:22;12.53;94.09
68378;DHT22;55322;48.146;11.516;2022-10-26T07:19:48;12.52;94.21
68378;DHT22;55322;48.146;11.516;2022-10-26T07:22:13;12.60;91.92
68378;DHT22;55322;48.146;11.516;2022-10-26T07:24:39;12.63;93.20
68378;DHT22;55322;48.146;11.516;2022-10-26T07:27:04;12.70;91.60
68378;DHT22;55322;48.146;11.516;2022-10-26T07:29:30;12.82;90.62
68378;DHT22;55322;48.146;11.516;2022-10-26T07:31:55;12.89;90.38
68378;DHT22;55322;48.146;11.516;2022-10-26T07:34:20;12.96;89.85
68378;DHT22;55322;48.146;11.516;2022-10-26T07:36:46;13.03;89.70
68378;DHT22;55322;48.146;11.516;2022-10-26T07:39:11;13.10;88.60
68378;DHT22;55322;48.146;11.516;2022-10-26T07:41:36;13.08;90.10
68378;DHT22;55322;48.146;11.516;2022-10-26T07:44:02;13.13;88.66
68378;DHT22;55322;48.146;11.516;2022-10-26T07:46:27;13.14;89.64
68378;DHT22;55322;48.146;11.516;2022-10-26T07:48:53;13.15;88.25
68378;DHT22;55322;48.146;11.516;2022-10-26T07:51:18;13.34;87.61
68378;DHT22;55322;48.146;11.516;2022-10-26T07:53:44;13.31;87.83
68378;DHT22;55322;48.146;11.516;2022-10-26T07:56:10;13.43;87.34
68378;DHT22;55322;48.146;11.516;2022-10-26T07:58:36;13.47;86.81
68378;DHT22;55322;48.146;11.516;2022-10-26T08:01:09;13.53;86.89
68378;DHT22;55322;48.146;11.516;2022-10-26T08:03:35;13.59;86.43
68378;DHT22;55322;48.146;11.516;2022-10-26T08:06:00;13.57;87.28
68378;DHT22;55322;48.146;11.516;2022-10-26T08:08:28;13.61;86.37
68378;DHT22;55322;48.146;11.516;2022-10-26T08:10:53;13.68;86.39
68378;DHT22;55322;48.146;11.516;2022-10-26T08:13:18;13.82;86.68
68378;DHT22;55322;48.146;11.516;2022-10-26T08:15:44;13.90;86.19
68378;DHT22;55322;48.146;11.516;2022-10-26T08:18:09;13.94;85.17
68378;DHT22;55322;48.146;11.516;2022-10-26T08:20:35;13.98;85.85
68378;DHT22;55322;48.146;11.516;2022-10-26T08:23:00;14.15;83.96
68378;DHT22;55322;48.146;11.516;2022-10-26T08:25:28;14.26;83.92
68378;DHT22;55322;48.146;11.516;2022-10-26T08:27:53;14.57;83.91
68378;DHT22;55322;48.146;11.516;2022-10-26T08:30:19;15.01;81.75
68378;DHT22;55322;48.146;11.516;2022-10-26T08:32:44;16.27;79.10
68378;DHT22;55322;48.146;11.516;2022-10-26T08:35:10;17.69;73.52
68378;DHT22;55322;48.146;11.516;2022-10-26T08:37:35;17.97;70.87
68378;DHT22;55322;48.146;11.516;2022-10-26T08:40:03;18.00;72.19
68378;DHT22;55322;48.146;11.516;2022-10-26T08:42:32;17.85;71.17
68378;DHT22;55322;48.146;11.516;2022-10-26T08:45:02;17.50;70.94
68378;DHT22;55322;48.146;11.516;2022-10-26T08:47:33;17.22;72.49
68378;DHT22;55322;48.146;11.516;2022-10-26T08:50:05;17.24;73.08
68378;DHT22;55322;48.146;11.516;2022-10-26T08:52:39;17.16;71.91
68378;DHT22;55322;48.146;11.516;2022-10-26T08:55:15;17.42;72.38
68378;DHT22;55322;48.146;11.516;2022-10-26T08:57:42;18.11;71.27
68378;DHT22;55322;48.146;11.516;2022-10-26T09:00:14;18.23;70.28
68378;DHT22;55322;48.146;11.516;2022-10-26T09:02:41;18.09;70.42
68378;DHT22;55322;48.146;11.516;2022-10-26T09:05:28;18.83;70.40
68378;DHT22;55322;48.146;11.516;2022-10-26T09:10:34;19.25;66.42
68378;DHT22;55322;48.146;11.516;2022-10-26T09:13:24;20.06;65.83
68378;DHT22;55322;48.146;11.516;2022-10-26T09:16:03;20.61;63.72
68378;DHT22;55322;48.146;11.516;2022-10-26T09:18:38;21.20;60.49
68378;DHT22;55322;48.146;11.516;2022-10-26T09:21:19;22.05;57.86
68378;DHT22;55322;48.146;11.516;2022-10-26T09:26:28;22.82;53.18
68378;DHT22;55322;48.146;11.516;2022-10-26T09:28:56;22.58;55.66
68378;DHT22;55322;48.146;11.516;2022-10-26T09:31:23;22.52;56.99
68378;DHT22;55322;48.146;11.516;2022-10-26T09:33:50;23.54;55.65
68378;DHT22;55322;48.146;11.516;2022-10-26T09:36:18;23.75;52.13
68378;DHT22;55322;48.146;11.516;2022-10-26T09:41:39;23.03;53.84
68378;DHT22;55322;48.146;11.516;2022-10-26T09:44:29;22.99;54.07
68378;DHT22;55322;48.146;11.516;2022-10-26T09:49:59;22.69;54.43
68378;DHT22;55322;48.146;11.516;2022-10-26T09:52:25;23.31;49.39
68378;DHT22;55322;48.146;11.516;2022-10-26T09:54:51;22.28;54.34
68378;DHT22;55322;48.146;11.516;2022-10-26T09:57:18;22.04;54.25
68378;DHT22;55322;48.146;11.516;2022-10-26T09:59:45;21.50;56.77
68378;DHT22;55322;48.146;11.516;2022-10-26T10:05:00;20.43;58.66
68378;DHT22;55322;48.146;11.516;2022-10-26T10:07:26;20.06;61.06
68378;DHT22;55322;48.146;11.516;2022-10-26T10:10:18;19.81;61.06
68378;DHT22;55322;48.146;11.516;2022-10-26T10:12:45;19.83;59.50
68378;DHT22;55322;48.146;11.516;2022-10-26T10:15:28;19.63;60.46
68378;DHT22;55322;48.146;11.516;2022-10-26T10:17:54;19.50;60.77
68378;DHT22;55322;48.146;11.516;2022-10-26T10:20:29;19.40;62.03
68378;DHT22;55322;48.146;11.516;2022-10-26T10:22:57;19.32;62.08
68378;DHT22;55322;48.146;11.516;2022-10-26T10:25:43;19.59;59.59
68378;DHT22;55322;48.146;11.516;2022-10-26T10:28:22;20.00;61.30
68378;DHT22;55322;48.146;11.516;2022-10-26T10:31:00;20.33;59.55
68378;DHT22;55322;48.146;11.516;2022-10-26T10:33:34;20.35;58.96
68378;DHT22;55322;48.146;11.516;2022-10-26T10:36:00;20.28;59.46
68378;DHT22;55322;48.146;11.516;2022-10-26T10:38:26;20.21;59.29
68378;DHT22;55322;48.146;11.516;2022-10-26T10:40:55;20.27;59.39
68378;DHT22;55322;48.146;11.516;2022-10-26T10:43:21;20.16;60.10
68378;DHT22;55322;48.146;11.516;2022-10-26T10:45:51;19.93;62.99
68378;DHT22;55322;48.146;11.516;2022-10-26T10:48:19;19.83;61.50
68378;DHT22;55322;48.146;11.516;2022-10-26T10:50:58;19.90;60.18
68378;DHT22;55322;48.146;11.516;2022-10-26T10:53:36;19.60;60.49
68378;DHT22;55322;48.146;11.516;2022-10-26T11:01:37;19.30;62.32
68378;DHT22;55322;48.146;11.516;2022-10-26T11:06:53;19.23;63.85
68378;DHT22;55322;48.146;11.516;2022-10-26T11:09:26;19.14;63.49
68378;DHT22;55322;48.146;11.516;2022-10-26T11:11:56;19.11;63.90
68378;DHT22;55322;48.146;11.516;2022-10-26T11:14:27;19.14;63.34
68378;DHT22;55322;48.146;11.516;2022-10-26T11:17:17;19.25;62.71
68378;DHT22;55322;48.146;11.516;2022-10-26T11:19:48;19.20;63.86
68378;DHT22;55322;48.146;11.516;2022-10-26T11:22:20;19.28;64.41
68378;DHT22;55322;48.146;11.516;2022-10-26T11:24:56;19.36;63.93
68378;DHT22;55322;48.146;11.516;2022-10-26T11:27:34;19.42;61.84
68378;DHT22;55322;48.146;11.516;2022-10-26T11:30:04;19.39;64.83
68378;DHT22;55322;48.146;11.516;2022-10-26T11:32:37;19.48;63.47
68378;DHT22;55322;48.146;11.516;2022-10-26T11:35:18;19.39;64.44
68378;DHT22;55322;48.146;11.516;2022-10-26T11:38:09;19.40;64.13
68378;DHT22;55322;48.146;11.516;2022-10-26T11:46:12;19.25;64.75
68378;DHT22;55322;48.146;11.516;2022-10-26T11:48:46;19.36;64.57
68378;DHT22;55322;48.146;11.516;2022-10-26T11:51:37;19.29;66.02
68378;DHT22;55322;48.146;11.516;2022-10-26T11:54:32;19.06;67.68
68378;DHT22;55322;48.146;11.516;2022-10-26T11:56:59;18.84;68.47
68378;DHT22;55322;48.146;11.516;2022-10-26T11:59:27;18.68;68.85
68378;DHT22;55322;48.146;11.516;2022-10-26T12:02:11;18.55;69.08
68378;DHT22;55322;48.146;11.516;2022-10-26T12:04:39;18.37;71.18
68378;DHT22;55322;48.146;11.516;2022-10-26T12:07:15;18.16;72.40
68378;DHT22;55322;48.146;11.516;2022-10-26T12:09:44;18.07;73.55
68378;DHT22;55322;48.146;11.516;2022-10-26T12:12:34;18.06;73.14
68378;DHT22;55322;48.146;11.516;2022-10-26T12:15:14;18.00;72.42
68378;DHT22;55322;48.146;11.516;2022-10-26T12:17:48;18.04;71.98
68378;DHT22;55322;48.146;11.516;2022-10-26T12:20:27;18.07;72.97
68378;DHT22;55322;48.146;11.516;2022-10-26T12:22:59;18.10;72.50
68378;DHT22;55322;48.146;11.516;2022-10-26T12:25:25;18.17;71.03
68378;DHT22;55322;48.146;11.516;2022-10-26T12:27:54;18.24;70.85
68378;DHT22;55322;48.146;11.516;2022-10-26T12:35:34;18.57;69.21
68378;DHT22;55322;48.146;11.516;2022-10-26T12:38:25;18.71;68.73
68378;DHT22;55322;48.146;11.516;2022-10-26T12:40:47;18.89;68.45
68378;DHT22;55322;48.146;11.516;2022-10-26T12:45:39;19.14;68.12
68378;DHT22;55322;48.146;11.516;2022-10-26T12:56:29;19.50;65.84
68378;DHT22;55322;48.146;11.516;2022-10-26T12:59:10;19.76;65.67
68378;DHT22;55322;48.146;11.516;2022-10-26T13:04:39;20.11;64.91
68378;DHT22;55322;48.146;11.516;2022-10-26T13:07:19;20.43;63.35
68378;DHT22;55322;48.146;11.516;2022-10-26T13:09:55;20.38;64.27
68378;DHT22;55322;48.146;11.516;2022-10-26T13:12:21;20.33;62.60
68378;DHT22;55322;48.146;11.516;2022-10-26T13:15:02;20.55;62.66
68378;DHT22;55322;48.146;11.516;2022-10-26T13:17:30;20.30;62.79
68378;DHT22;55322;48.146;11.516;2022-10-26T13:20:01;20.18;61.91
68378;DHT22;55322;48.146;11.516;2022-10-26T13:22:28;20.20;62.23
68378;DHT22;55322;48.146;11.516;2022-10-26T13:24:57;19.93;62.06
68378;DHT22;55322;48.146;11.516;2022-10-26T13:30:19;19.69;64.32
68378;DHT22;55322;48.146;11.516;2022-10-26T13:32:53;19.55;64.57
68378;DHT22;55322;48.146;11.516;2022-10-26T13:35:22;19.35;65.80
68378;DHT22;55322;48.146;11.516;2022-10-26T13:37:50;19.25;64.84
68378;DHT22;55322;48.146;11.516;2022-10-26T13:40:18;19.18;65.83
68378;DHT22;55322;48.146;11.516;2022-10-26T13:42:46;19.09;66.60
68378;DHT22;55322;48.146;11.516;2022-10-26T13:45:16;19.05;66.67
68378;DHT22;55322;48.146;11.516;2022-10-26T13:47:51;19.04;67.65
68378;DHT22;55322;48.146;11.516;2022-10-26T13:50:21;18.96;67.99
68378;DHT22;55322;48.146;11.516;2022-10-26T13:52:50;18.94;67.29
68378;DHT22;55322;48.146;11.516;2022-10-26T13:55:21;18.98;66.70
68378;DHT22;55322;48.146;11.516;2022-10-26T13:58:17;18.98;65.93
68378;DHT22;55322;48.146;11.516;2022-10-26T14:01:10;19.02;66.94
68378;DHT22;55322;48.146;11.516;2022-10-26T14:03:36;19.04;66.32
68378;DHT22;55322;48.146;11.516;2022-10-26T14:06:29;18.99;68.00
68378;DHT22;55322;48.146;11.516;2022-10-26T14:08:58;19.01;68.49
68378;DHT22;55322;48.146;11.516;2022-10-26T14:11:34;18.96;68.40
68378;DHT22;55322;48.146;11.516;2022-10-26T14:14:00;18.89;68.59
68378;DHT22;55322;48.146;11.516;2022-10-26T14:16:28;18.91;68.51
68378;DHT22;55322;48.146;11.516;2022-10-26T14:18:54;18.88;67.93
68378;DHT22;55322;48.146;11.516;2022-10-26T14:21:21;18.91;68.08
68378;DHT22;55322;48.146;11.516;2022-10-26T14:23:50;18.89;68.83
68378;DHT22;55322;48.146;11.516;2022-10-26T14:26:37;18.84;68.42
68378;DHT22;55322;48.146;11.516;2022-10-26T14:29:03;18.75;69.53
68378;DHT22;55322;48.146;11.516;2022-10-26T14:31:31;18.57;69.65
68378;DHT22;55322;48.146;11.516;2022-10-26T14:33:58;18.51;69.15
68378;DHT22;55322;48.146;11.516;2022-10-26T14:36:30;18.40;70.21
68378;DHT22;55322;48.146;11.516;2022-10-26T14:39:00;18.26;70.62
68378;DHT22;55322;48.146;11.516;2022-10-26T14:41:26;18.20;71.75
68378;DHT22;55322;48.146;11.516;2022-10-26T14:43:54;18.16;71.17
68378;DHT22;55322;48.146;11.516;2022-10-26T14:46:20;18.10;71.00
68378;DHT22;55322;48.146;11.516;2022-10-26T14:51:18;18.04;73.56
68378;DHT22;55322;48.146;11.516;2022-10-26T14:53:50;17.93;73.01
68378;DHT22;55322;48.146;11.516;2022-10-26T14:56:25;17.85;73.00
68378;DHT22;55322;48.146;11.516;2022-10-26T14:58:53;17.75;74.60
68378;DHT22;55322;48.146;11.516;2022-10-26T15:03:53;17.59;76.32
68378;DHT22;55322;48.146;11.516;2022-10-26T15:08:57;17.46;76.30
68378;DHT22;55322;48.146;11.516;2022-10-26T15:11:24;17.45;73.92
68378;DHT22;55322;48.146;11.516;2022-10-26T15:13:50;17.45;74.16
68378;DHT22;55322;48.146;11.516;2022-10-26T15:16:18;17.40;74.91
68378;DHT22;55322;48.146;11.516;2022-10-26T15:18:45;17.40;75.03
68378;DHT22;55322;48.146;11.516;2022-10-26T15:21:34;17.35;75.83
68378;DHT22;55322;48.146;11.516;2022-10-26T15:24:00;17.35;74.95
68378;DHT22;55322;48.146;11.516;2022-10-26T15:26:27;17.36;73.68
68378;DHT22;55322;48.146;11.516;2022-10-26T15:28:53;17.36;74.47
68378;DHT22;55322;48.146;11.516;2022-10-26T15:36:23;17.26;75.35
68378;DHT22;55322;48.146;11.516;2022-10-26T15:38:49;17.22;76.08
68378;DHT22;55322;48.146;11.516;2022-10-26T15:43:48;17.08;76.33
68378;DHT22;55322;48.146;11.516;2022-10-26T15:46:14;16.95;77.48
68378;DHT22;55322;48.146;11.516;2022-10-26T15:48:40;16.80;78.75
68378;DHT22;55322;48.146;11.516;2022-10-26T15:51:07;16.73;78.58
68378;DHT22;55322;48.146;11.516;2022-10-26T15:53:35;16.63;79.38
68378;DHT22;55322;48.146;11.516;2022-10-26T15:56:01;16.59;80.71
68378;DHT22;55322;48.146;11.516;2022-10-26T15:58:28;16.44;80.81
68378;DHT22;55322;48.146;11.516;2022-10-26T16:00:55;16.37;81.40
68378;DHT22;55322;48.146;11.516;2022-10-26T16:03:22;16.33;81.11
68378;DHT22;55322;48.146;11.516;2022-10-26T16:05:56;16.31;82.55
68378;DHT22;55322;48.146;11.516;2022-10-26T16:08:23;16.27;81.93
68378;DHT22;55322;48.146;11.516;2022-10-26T16:10:50;16.24;82.35
68378;DHT22;55322;48.146;11.516;2022-10-26T16:13:15;16.16;82.06
68378;DHT22;55322;48.146;11.516;2022-10-26T16:15:41;16.12;82.37
68378;DHT22;55322;48.146;11.516;2022-10-26T16:18:07;16.10;82.45
68378;DHT22;55322;48.146;11.516;2022-10-26T16:20:33;16.08;82.34
68378;DHT22;55322;48.146;11.516;2022-10-26T16:22:58;16.08;82.73
68378;DHT22;55322;48.146;11.516;2022-10-26T16:25:30;15.99;83.03
68378;DHT22;55322;48.146;11.516;2022-10-26T16:27:56;15.96;83.41
68378;DHT22;55322;48.146;11.516;2022-10-26T16:30:21;15.89;82.84
68378;DHT22;55322;48.146;11.516;2022-10-26T16:32:47;15.90;83.37
68378;DHT22;55322;48.146;11.516;2022-10-26T16:35:12;15.86;82.53
68378;DHT22;55322;48.146;11.516;2022-10-26T16:37:38;15.89;82.32
68378;DHT22;55322;48.146;11.516;2022-10-26T16:40:05;15.79;82.65
68378;DHT22;55322;48.146;11.516;2022-10-26T16:42:31;15.79;83.14
68378;DHT22;55322;48.146;11.516;2022-10-26T16:44:57;15.75;83.40
68378;DHT22;55322;48.146;11.516;2022-10-26T16:47:22;15.72;84.14
68378;DHT22;55322;48.146;11.516;2022-10-26T16:49:47;15.66;83.75
68378;DHT22;55322;48.146;11.516;2022-10-26T16:52:13;15.62;84.09
68378;DHT22;55322;48.146;11.516;2022-10-26T16:54:39;15.62;84.30
68378;DHT22;55322;48.146;11.516;2022-10-26T16:57:04;15.63;83.54
68378;DHT22;55322;48.146;11.516;2022-10-26T16:59:29;15.63;83.99
68378;DHT22;55322;48.146;11.516;2022-10-26T17:01:55;15.61;84.84
68378;DHT22;55322;48.146;11.516;2022-10-26T17:04:20;15.55;84.88
68378;DHT22;55322;48.146;11.516;2022-10-26T17:06:45;15.52;84.95
68378;DHT22;55322;48.146;11.516;2022-10-26T17:09:11;15.48;85.12
68378;DHT22;55322;48.146;11.516;2022-10-26T17:11:37;15.42;85.02
68378;DHT22;55322;48.146;11.516;2022-10-26T17:14:02;15.45;84.47
68378;DHT22;55322;48.146;11.516;2022-10-26T17:16:28;15.44;85.62
68378;DHT22;55322;48.146;11.516;2022-10-26T17:18:53;15.39;84.96